sensor_id;sensor_type;location;lat;lon;timestamp;temperature;humidity
31735;DHT22;18313;48.518;9.124;2023-08-30T00:00:38;14.00;99.90
31735;DHT22;18313;48.518;9.124;2023-08-30T00:03:06;13.90;99.90
31735;DHT22;18313;48.518;9.124;2023-08-30T00:05:34;13.90;99.90
31735;DHT22;18313;48.518;9.124;2023-08-30T00:08:02;13.80;99.90
31735;DHT22;18313;48.518;9.124;2023-08-30T00:10:29;13.90;99.90
31735;DHT22;18313;48.518;9.124;2023-08-30T00:12:57;13.90;99.90
31735;DHT22;18313;48.518;9.124;2023-08-30T00:15:24;13.90;99.90
31735;DHT22;18313;48.518;9.124;2023-08-30T00:17:52;13.90;99.90
31735;DHT22;18313;48.518;9.124;2023-08-30T00:20:20;13.80;99.90
31735;DHT22;18313;48.518;9.124;2023-08-30T00:22:48;13.90;99.90
31735;DHT22;18313;48.518;9.124;2023-08-30T00:25:17;14.00;99.90
31735;DHT22;18313;48.518;9.124;2023-08-30T00:27:45;14.00;99.90
31735;DHT22;18313;48.518;9.124;2023-08-30T00:30:12;14.00;99.90
31735;DHT22;18313;48.518;9.124;2023-08-30T00:32:39;13.90;99.90
31735;DHT22;18313;48.518;9.124;2023-08-30T00:35:07;13.80;99.90
31735;DHT22;18313;48.518;9.124;2023-08-30T00:37:34;13.80;99.90
31735;DHT22;18313;48.518;9.124;2023-08-30T00:40:02;13.80;99.90
31735;DHT22;18313;48.518;9.124;2023-08-30T00:42:31;13.70;99.90
31735;DHT22;18313;48.518;9.124;2023-08-30T00:44:59;13.70;99.90
31735;DHT22;18313;48.518;9.124;2023-08-30T00:47:26;13.70;99.90
31735;DHT22;18313;48.518;9.124;2023-08-30T00:49:53;13.70;99.90
31735;DHT22;18313;48.518;9.124;2023-08-30T00:52:21;13.70;99.90
31735;DHT22;18313;48.518;9.124;2023-08-30T00:54:48;13.60;99.90
31735;DHT22;18313;48.518;9.124;2023-08-30T00:57:16;13.60;99.90
31735;DHT22;18313;48.518;9.124;2023-08-30T00:59:43;13.50;99.90
31735;DHT22;18313;48.518;9.124;2023-08-30T01:02:12;13.40;99.90
31735;DHT22;18313;48.518;9.124;2023-08-30T01:04:39;13.40;99.90
31735;DHT22;18313;48.518;9.124;2023-08-30T01:07:07;13.50;99.90
31735;DHT22;18313;48.518;9.124;2023-08-30T01:09:34;13.60;99.90
31735;DHT22;18313;48.518;9.124;2023-08-30T01:12:10;13.60;99.90
31735;DHT22;18313;48.518;9.124;2023-08-30T01:17:16;13.60;99.90
31735;DHT22;18313;48.518;9.124;2023-08-30T01:20:00;13.60;99.90
31735;DHT22;18313;48.518;9.124;2023-08-30T01:22:45;13.60;99.90
31735;DHT22;18313;48.518;9.124;2023-08-30T01:27:56;13.50;99.90
31735;DHT22;18313;48.518;9.124;2023-08-30T01:30:24;13.40;99.90
31735;DHT22;18313;48.518;9.124;2023-08-30T01:32:54;13.30;99.90
31735;DHT22;18313;48.518;9.124;2023-08-30T01:35:24;13.20;99.90
31735;DHT22;18313;48.518;9.124;2023-08-30T01:37:51;13.30;99.90
31735;DHT22;18313;48.518;9.124;2023-08-30T01:40:20;13.30;99.90
31735;DHT22;18313;48.518;9.124;2023-08-30T01:42:48;13.40;99.90
31735;DHT22;18313;48.518;9.124;2023-08-30T01:45:16;13.30;99.90
31735;DHT22;18313;48.518;9.124;2023-08-30T01:47:44;13.30;99.90
31735;DHT22;18313;48.518;9.124;2023-08-30T01:50:13;13.30;99.90
31735;DHT22;18313;48.518;9.124;2023-08-30T01:52:40;13.30;99.90
31735;DHT22;18313;48.518;9.124;2023-08-30T01:55:08;13.20;99.90
31735;DHT22;18313;48.518;9.124;2023-08-30T01:57:37;13.20;99.90
31735;DHT22;18313;48.518;9.124;2023-08-30T02:00:04;13.20;99.90
31735;DHT22;18313;48.518;9.124;2023-08-30T02:02:33;13.20;99.90
31735;DHT22;18313;48.518;9.124;2023-08-30T02:05:01;13.10;99.90
31735;DHT22;18313;48.518;9.124;2023-08-30T02:07:49;13.20;99.90
31735;DHT22;18313;48.518;9.124;2023-08-30T02:10:23;13.10;99.90
31735;DHT22;18313;48.518;9.124;2023-08-30T02:12:54;13.10;99.90
31735;DHT22;18313;48.518;9.124;2023-08-30T02:15:23;13.10;99.90
31735;DHT22;18313;48.518;9.124;2023-08-30T02:17:52;13.00;99.90
31735;DHT22;18313;48.518;9.124;2023-08-30T02:20:19;13.00;99.90
31735;DHT22;18313;48.518;9.124;2023-08-30T02:22:46;13.00;99.90
31735;DHT22;18313;48.518;9.124;2023-08-30T02:25:14;13.00;99.90
31735;DHT22;18313;48.518;9.124;2023-08-30T02:27:41;13.00;99.90
31735;DHT22;18313;48.518;9.124;2023-08-30T02:30:08;13.00;99.90
31735;DHT22;18313;48.518;9.124;2023-08-30T02:32:35;13.00;99.90
31735;DHT22;18313;48.518;9.124;2023-08-30T02:35:03;13.00;99.90
31735;DHT22;18313;48.518;9.124;2023-08-30T02:37:30;13.00;99.90
31735;DHT22;18313;48.518;9.124;2023-08-30T02:39:57;13.00;99.90
31735;DHT22;18313;48.518;9.124;2023-08-30T02:42:24;13.10;99.90
31735;DHT22;18313;48.518;9.124;2023-08-30T02:44:53;13.10;99.90
31735;DHT22;18313;48.518;9.124;2023-08-30T02:47:20;13.20;99.90
31735;DHT22;18313;48.518;9.124;2023-08-30T02:49:47;13.20;99.90
31735;DHT22;18313;48.518;9.124;2023-08-30T02:52:14;13.20;99.90
31735;DHT22;18313;48.518;9.124;2023-08-30T02:54:41;13.20;99.90
31735;DHT22;18313;48.518;9.124;2023-08-30T02:57:09;13.20;99.90
31735;DHT22;18313;48.518;9.124;2023-08-30T02:59:36;13.10;99.90
31735;DHT22;18313;48.518;9.124;2023-08-30T03:02:03;13.10;99.90
31735;DHT22;18313;48.518;9.124;2023-08-30T03:04:30;13.10;99.90
31735;DHT22;18313;48.518;9.124;2023-08-30T03:06:58;13.20;99.90
31735;DHT22;18313;48.518;9.124;2023-08-30T03:09:25;13.10;99.90
31735;DHT22;18313;48.518;9.124;2023-08-30T03:11:52;13.10;99.90
31735;DHT22;18313;48.518;9.124;2023-08-30T03:14:19;13.00;99.90
31735;DHT22;18313;48.518;9.124;2023-08-30T03:16:46;13.00;99.90
31735;DHT22;18313;48.518;9.124;2023-08-30T03:19:14;13.10;99.90
31735;DHT22;18313;48.518;9.124;2023-08-30T03:21:44;13.10;99.90
31735;DHT22;18313;48.518;9.124;2023-08-30T03:24:11;13.10;99.90
31735;DHT22;18313;48.518;9.124;2023-08-30T03:26:38;13.10;99.90
31735;DHT22;18313;48.518;9.124;2023-08-30T03:29:05;13.00;99.90
31735;DHT22;18313;48.518;9.124;2023-08-30T03:31:32;13.00;99.90
31735;DHT22;18313;48.518;9.124;2023-08-30T03:34:00;13.00;99.90
31735;DHT22;18313;48.518;9.124;2023-08-30T03:36:28;12.80;99.90
31735;DHT22;18313;48.518;9.124;2023-08-30T03:38:55;12.80;99.90
31735;DHT22;18313;48.518;9.124;2023-08-30T03:41:22;12.80;99.90
31735;DHT22;18313;48.518;9.124;2023-08-30T03:43:49;12.80;99.90
31735;DHT22;18313;48.518;9.124;2023-08-30T03:46:17;12.80;99.90
31735;DHT22;18313;48.518;9.124;2023-08-30T03:48:44;12.80;99.90
31735;DHT22;18313;48.518;9.124;2023-08-30T03:51:11;12.70;99.90
31735;DHT22;18313;48.518;9.124;2023-08-30T03:53:38;12.70;99.90
31735;DHT22;18313;48.518;9.124;2023-08-30T03:56:05;12.70;99.90
31735;DHT22;18313;48.518;9.124;2023-08-30T03:58:32;12.60;99.90
31735;DHT22;18313;48.518;9.124;2023-08-30T04:01:00;12.60;99.90
31735;DHT22;18313;48.518;9.124;2023-08-30T04:03:27;12.70;99.90
31735;DHT22;18313;48.518;9.124;2023-08-30T04:05:55;12.70;99.90
31735;DHT22;18313;48.518;9.124;2023-08-30T04:08:26;12.70;99.90
31735;DHT22;18313;48.518;9.124;2023-08-30T04:10:53;12.70;99.90
31735;DHT22;18313;48.518;9.124;2023-08-30T04:13:21;12.70;99.90
31735;DHT22;18313;48.518;9.124;2023-08-30T04:15:48;12.70;99.90
31735;DHT22;18313;48.518;9.124;2023-08-30T04:18:15;12.70;99.90
31735;DHT22;18313;48.518;9.124;2023-08-30T04:20:44;12.70;99.90
31735;DHT22;18313;48.518;9.124;2023-08-30T04:23:12;12.60;99.90
31735;DHT22;18313;48.518;9.124;2023-08-30T04:25:40;12.50;99.90
31735;DHT22;18313;48.518;9.124;2023-08-30T04:28:07;12.50;99.90
31735;DHT22;18313;48.518;9.124;2023-08-30T04:30:38;12.50;99.90
31735;DHT22;18313;48.518;9.124;2023-08-30T04:33:05;12.50;99.90
31735;DHT22;18313;48.518;9.124;2023-08-30T04:35:33;12.50;99.90
31735;DHT22;18313;48.518;9.124;2023-08-30T04:38:00;12.60;99.90
31735;DHT22;18313;48.518;9.124;2023-08-30T04:40:28;12.50;99.90
31735;DHT22;18313;48.518;9.124;2023-08-30T04:42:58;12.50;99.90
31735;DHT22;18313;48.518;9.124;2023-08-30T04:45:25;12.50;99.90
31735;DHT22;18313;48.518;9.124;2023-08-30T04:47:53;12.50;99.90
31735;DHT22;18313;48.518;9.124;2023-08-30T04:50:21;12.50;99.90
31735;DHT22;18313;48.518;9.124;2023-08-30T04:52:48;12.50;99.90
31735;DHT22;18313;48.518;9.124;2023-08-30T04:55:16;12.60;99.90
31735;DHT22;18313;48.518;9.124;2023-08-30T04:57:43;12.60;99.90
31735;DHT22;18313;48.518;9.124;2023-08-30T05:00:13;12.60;99.90
31735;DHT22;18313;48.518;9.124;2023-08-30T05:02:40;12.60;99.90
31735;DHT22;18313;48.518;9.124;2023-08-30T05:05:10;12.60;99.90
31735;DHT22;18313;48.518;9.124;2023-08-30T05:07:38;12.60;99.90
31735;DHT22;18313;48.518;9.124;2023-08-30T05:10:06;12.70;99.90
31735;DHT22;18313;48.518;9.124;2023-08-30T05:12:34;12.70;99.90
31735;DHT22;18313;48.518;9.124;2023-08-30T05:15:02;12.70;99.90
31735;DHT22;18313;48.518;9.124;2023-08-30T05:17:31;12.80;99.90
31735;DHT22;18313;48.518;9.124;2023-08-30T05:19:58;12.80;99.90
31735;DHT22;18313;48.518;9.124;2023-08-30T05:22:26;12.90;99.90
31735;DHT22;18313;48.518;9.124;2023-08-30T05:24:53;13.00;99.90
31735;DHT22;18313;48.518;9.124;2023-08-30T05:27:20;12.90;99.90
31735;DHT22;18313;48.518;9.124;2023-08-30T05:29:47;13.00;99.90
31735;DHT22;18313;48.518;9.124;2023-08-30T05:32:14;13.10;99.90
31735;DHT22;18313;48.518;9.124;2023-08-30T05:34:41;13.00;99.90
31735;DHT22;18313;48.518;9.124;2023-08-30T05:37:08;13.00;99.90
31735;DHT22;18313;48.518;9.124;2023-08-30T05:39:36;13.00;99.90
31735;DHT22;18313;48.518;9.124;2023-08-30T05:42:03;13.00;99.90
31735;DHT22;18313;48.518;9.124;2023-08-30T05:44:31;13.10;99.90
31735;DHT22;18313;48.518;9.124;2023-08-30T05:46:58;13.10;99.90
31735;DHT22;18313;48.518;9.124;2023-08-30T05:49:25;13.10;99.90
31735;DHT22;18313;48.518;9.124;2023-08-30T05:51:52;13.20;99.90
31735;DHT22;18313;48.518;9.124;2023-08-30T05:54:19;13.20;99.90
31735;DHT22;18313;48.518;9.124;2023-08-30T05:56:46;13.20;99.90
31735;DHT22;18313;48.518;9.124;2023-08-30T05:59:14;13.30;99.90
31735;DHT22;18313;48.518;9.124;2023-08-30T06:01:41;13.30;99.90
31735;DHT22;18313;48.518;9.124;2023-08-30T06:04:09;13.30;99.90
31735;DHT22;18313;48.518;9.124;2023-08-30T06:06:36;13.40;99.90
31735;DHT22;18313;48.518;9.124;2023-08-30T06:09:03;13.40;99.90
31735;DHT22;18313;48.518;9.124;2023-08-30T06:11:30;13.40;99.90
31735;DHT22;18313;48.518;9.124;2023-08-30T06:13:59;13.40;99.90
31735;DHT22;18313;48.518;9.124;2023-08-30T06:16:26;13.40;99.90
31735;DHT22;18313;48.518;9.124;2023-08-30T06:18:53;13.50;99.90
31735;DHT22;18313;48.518;9.124;2023-08-30T06:21:20;13.50;99.90
31735;DHT22;18313;48.518;9.124;2023-08-30T06:23:48;13.50;99.90
31735;DHT22;18313;48.518;9.124;2023-08-30T06:26:15;13.60;99.90
31735;DHT22;18313;48.518;9.124;2023-08-30T06:28:42;13.70;99.90
31735;DHT22;18313;48.518;9.124;2023-08-30T06:31:24;13.80;99.90
31735;DHT22;18313;48.518;9.124;2023-08-30T06:33:53;13.90;99.90
31735;DHT22;18313;48.518;9.124;2023-08-30T06:36:20;13.90;99.90
31735;DHT22;18313;48.518;9.124;2023-08-30T06:38:50;13.90;99.90
31735;DHT22;18313;48.518;9.124;2023-08-30T06:41:17;13.90;99.90
31735;DHT22;18313;48.518;9.124;2023-08-30T06:43:44;13.90;99.90
31735;DHT22;18313;48.518;9.124;2023-08-30T06:46:11;13.80;99.90
31735;DHT22;18313;48.518;9.124;2023-08-30T06:48:39;13.90;99.90
31735;DHT22;18313;48.518;9.124;2023-08-30T06:51:06;14.10;99.90
31735;DHT22;18313;48.518;9.124;2023-08-30T06:53:33;14.10;99.90
31735;DHT22;18313;48.518;9.124;2023-08-30T06:56:01;14.20;99.90
31735;DHT22;18313;48.518;9.124;2023-08-30T06:58:28;14.40;99.90
31735;DHT22;18313;48.518;9.124;2023-08-30T07:00:57;14.50;99.90
31735;DHT22;18313;48.518;9.124;2023-08-30T07:03:24;14.60;99.90
31735;DHT22;18313;48.518;9.124;2023-08-30T07:05:52;14.70;99.90
31735;DHT22;18313;48.518;9.124;2023-08-30T07:08:19;14.90;99.90
31735;DHT22;18313;48.518;9.124;2023-08-30T07:10:46;14.90;99.90
31735;DHT22;18313;48.518;9.124;2023-08-30T07:13:13;15.00;99.90
31735;DHT22;18313;48.518;9.124;2023-08-30T07:15:41;15.20;99.90
31735;DHT22;18313;48.518;9.124;2023-08-30T07:18:09;15.30;99.90
31735;DHT22;18313;48.518;9.124;2023-08-30T07:20:38;15.30;99.90
31735;DHT22;18313;48.518;9.124;2023-08-30T07:23:06;15.40;99.90
31735;DHT22;18313;48.518;9.124;2023-08-30T07:25:37;15.50;99.90
31735;DHT22;18313;48.518;9.124;2023-08-30T07:28:08;15.30;99.90
31735;DHT22;18313;48.518;9.124;2023-08-30T07:30:35;15.30;99.90
31735;DHT22;18313;48.518;9.124;2023-08-30T07:33:03;15.50;99.90
31735;DHT22;18313;48.518;9.124;2023-08-30T07:35:32;15.60;99.90
31735;DHT22;18313;48.518;9.124;2023-08-30T07:37:59;15.70;99.90
31735;DHT22;18313;48.518;9.124;2023-08-30T07:40:27;15.90;99.90
31735;DHT22;18313;48.518;9.124;2023-08-30T07:42:56;15.80;99.90
31735;DHT22;18313;48.518;9.124;2023-08-30T07:45:25;15.90;99.90
31735;DHT22;18313;48.518;9.124;2023-08-30T07:47:53;16.00;99.90
31735;DHT22;18313;48.518;9.124;2023-08-30T07:50:20;16.00;99.90
31735;DHT22;18313;48.518;9.124;2023-08-30T07:52:47;16.10;99.90
31735;DHT22;18313;48.518;9.124;2023-08-30T07:55:15;16.20;99.90
31735;DHT22;18313;48.518;9.124;2023-08-30T07:57:42;16.40;99.90
31735;DHT22;18313;48.518;9.124;2023-08-30T08:00:10;16.40;99.90
31735;DHT22;18313;48.518;9.124;2023-08-30T08:02:40;16.50;99.90
31735;DHT22;18313;48.518;9.124;2023-08-30T08:05:08;16.70;99.90
31735;DHT22;18313;48.518;9.124;2023-08-30T08:07:38;16.80;99.90
31735;DHT22;18313;48.518;9.124;2023-08-30T08:10:07;17.00;99.90
31735;DHT22;18313;48.518;9.124;2023-08-30T08:12:34;17.10;99.90
31735;DHT22;18313;48.518;9.124;2023-08-30T08:15:02;17.20;99.90
31735;DHT22;18313;48.518;9.124;2023-08-30T08:17:29;17.40;99.90
31735;DHT22;18313;48.518;9.124;2023-08-30T08:19:56;17.60;99.90
31735;DHT22;18313;48.518;9.124;2023-08-30T08:22:23;17.60;99.90
31735;DHT22;18313;48.518;9.124;2023-08-30T08:24:50;17.60;99.90
31735;DHT22;18313;48.518;9.124;2023-08-30T08:27:18;17.70;99.90
31735;DHT22;18313;48.518;9.124;2023-08-30T08:29:45;17.90;99.90
31735;DHT22;18313;48.518;9.124;2023-08-30T08:32:12;18.00;99.90
31735;DHT22;18313;48.518;9.124;2023-08-30T08:34:40;18.00;99.90
31735;DHT22;18313;48.518;9.124;2023-08-30T08:37:07;18.20;99.90
31735;DHT22;18313;48.518;9.124;2023-08-30T08:39:35;18.30;99.90
31735;DHT22;18313;48.518;9.124;2023-08-30T08:42:03;18.40;99.90
31735;DHT22;18313;48.518;9.124;2023-08-30T08:44:32;18.50;99.90
31735;DHT22;18313;48.518;9.124;2023-08-30T08:47:00;18.30;99.90
31735;DHT22;18313;48.518;9.124;2023-08-30T08:49:28;18.50;99.90
31735;DHT22;18313;48.518;9.124;2023-08-30T08:51:57;18.60;99.90
31735;DHT22;18313;48.518;9.124;2023-08-30T08:54:25;18.60;99.90
31735;DHT22;18313;48.518;9.124;2023-08-30T08:56:53;18.70;99.90
31735;DHT22;18313;48.518;9.124;2023-08-30T08:59:21;18.60;99.90
31735;DHT22;18313;48.518;9.124;2023-08-30T09:01:49;18.80;99.90
31735;DHT22;18313;48.518;9.124;2023-08-30T09:04:16;18.50;99.90
31735;DHT22;18313;48.518;9.124;2023-08-30T09:06:44;18.50;99.90
31735;DHT22;18313;48.518;9.124;2023-08-30T09:09:11;18.80;99.90
31735;DHT22;18313;48.518;9.124;2023-08-30T09:11:39;19.10;99.90
31735;DHT22;18313;48.518;9.124;2023-08-30T09:14:18;19.30;99.90
31735;DHT22;18313;48.518;9.124;2023-08-30T09:16:58;19.50;99.90
31735;DHT22;18313;48.518;9.124;2023-08-30T09:19:27;19.70;99.90
31735;DHT22;18313;48.518;9.124;2023-08-30T09:21:56;19.70;99.90
31735;DHT22;18313;48.518;9.124;2023-08-30T09:24:24;19.70;99.90
31735;DHT22;18313;48.518;9.124;2023-08-30T09:26:53;19.80;99.90
31735;DHT22;18313;48.518;9.124;2023-08-30T09:29:22;19.90;99.90
31735;DHT22;18313;48.518;9.124;2023-08-30T09:31:52;20.10;99.90
31735;DHT22;18313;48.518;9.124;2023-08-30T09:34:26;20.10;99.90
31735;DHT22;18313;48.518;9.124;2023-08-30T09:36:54;20.20;99.90
31735;DHT22;18313;48.518;9.124;2023-08-30T09:39:22;20.20;99.90
31735;DHT22;18313;48.518;9.124;2023-08-30T09:41:50;20.50;99.90
31735;DHT22;18313;48.518;9.124;2023-08-30T09:44:21;20.70;99.90
31735;DHT22;18313;48.518;9.124;2023-08-30T09:46:53;20.70;99.90
31735;DHT22;18313;48.518;9.124;2023-08-30T09:49:25;20.80;99.90
31735;DHT22;18313;48.518;9.124;2023-08-30T09:51:54;21.00;99.90
31735;DHT22;18313;48.518;9.124;2023-08-30T09:54:26;21.10;99.90
31735;DHT22;18313;48.518;9.124;2023-08-30T09:57:06;20.90;99.90
31735;DHT22;18313;48.518;9.124;2023-08-30T09:59:34;21.20;99.90
31735;DHT22;18313;48.518;9.124;2023-08-30T10:02:02;21.10;99.90
31735;DHT22;18313;48.518;9.124;2023-08-30T10:04:29;21.30;99.90
31735;DHT22;18313;48.518;9.124;2023-08-30T10:06:58;21.40;99.90
31735;DHT22;18313;48.518;9.124;2023-08-30T10:09:27;21.50;99.90
31735;DHT22;18313;48.518;9.124;2023-08-30T10:11:57;21.60;99.90
31735;DHT22;18313;48.518;9.124;2023-08-30T10:14:24;21.60;99.90
31735;DHT22;18313;48.518;9.124;2023-08-30T10:16:58;21.50;99.90
31735;DHT22;18313;48.518;9.124;2023-08-30T10:19:29;21.40;99.90
31735;DHT22;18313;48.518;9.124;2023-08-30T10:22:04;21.30;99.90
31735;DHT22;18313;48.518;9.124;2023-08-30T10:24:42;21.50;99.90
31735;DHT22;18313;48.518;9.124;2023-08-30T10:27:35;21.60;99.90
31735;DHT22;18313;48.518;9.124;2023-08-30T10:30:05;21.70;99.90
31735;DHT22;18313;48.518;9.124;2023-08-30T10:32:39;21.80;99.90
31735;DHT22;18313;48.518;9.124;2023-08-30T10:35:09;22.10;99.90
31735;DHT22;18313;48.518;9.124;2023-08-30T10:37:37;21.80;99.90
31735;DHT22;18313;48.518;9.124;2023-08-30T10:40:04;21.70;99.90
31735;DHT22;18313;48.518;9.124;2023-08-30T10:42:33;21.60;99.90
31735;DHT22;18313;48.518;9.124;2023-08-30T10:45:04;21.60;99.90
31735;DHT22;18313;48.518;9.124;2023-08-30T10:47:37;21.70;99.90
31735;DHT22;18313;48.518;9.124;2023-08-30T10:50:07;21.90;99.90
31735;DHT22;18313;48.518;9.124;2023-08-30T10:52:35;21.70;99.90
31735;DHT22;18313;48.518;9.124;2023-08-30T10:55:14;21.90;99.90
31735;DHT22;18313;48.518;9.124;2023-08-30T10:57:43;22.20;99.90
31735;DHT22;18313;48.518;9.124;2023-08-30T11:02:45;21.90;99.80
31735;DHT22;18313;48.518;9.124;2023-08-30T11:05:16;22.00;99.90
31735;DHT22;18313;48.518;9.124;2023-08-30T11:07:44;22.10;99.90
31735;DHT22;18313;48.518;9.124;2023-08-30T11:10:12;22.30;99.60
31735;DHT22;18313;48.518;9.124;2023-08-30T11:12:43;22.20;99.00
31735;DHT22;18313;48.518;9.124;2023-08-30T11:15:12;21.90;99.30
31735;DHT22;18313;48.518;9.124;2023-08-30T11:17:43;21.90;99.80
31735;DHT22;18313;48.518;9.124;2023-08-30T11:20:15;22.20;99.90
31735;DHT22;18313;48.518;9.124;2023-08-30T11:22:45;22.70;99.50
31735;DHT22;18313;48.518;9.124;2023-08-30T11:25:14;23.00;98.90
31735;DHT22;18313;48.518;9.124;2023-08-30T11:27:42;23.20;99.00
31735;DHT22;18313;48.518;9.124;2023-08-30T11:30:10;23.50;97.60
31735;DHT22;18313;48.518;9.124;2023-08-30T11:32:42;23.60;98.00
31735;DHT22;18313;48.518;9.124;2023-08-30T11:35:13;23.70;97.90
31735;DHT22;18313;48.518;9.124;2023-08-30T11:37:41;23.70;98.60
31735;DHT22;18313;48.518;9.124;2023-08-30T11:40:11;24.00;98.70
31735;DHT22;18313;48.518;9.124;2023-08-30T11:42:38;24.30;98.20
31735;DHT22;18313;48.518;9.124;2023-08-30T11:45:07;24.40;98.60
31735;DHT22;18313;48.518;9.124;2023-08-30T11:47:36;24.40;97.00
31735;DHT22;18313;48.518;9.124;2023-08-30T11:50:04;24.40;97.10
31735;DHT22;18313;48.518;9.124;2023-08-30T11:52:33;24.40;97.00
31735;DHT22;18313;48.518;9.124;2023-08-30T11:55:01;24.50;97.30
31735;DHT22;18313;48.518;9.124;2023-08-30T11:57:33;24.30;96.50
31735;DHT22;18313;48.518;9.124;2023-08-30T12:00:13;24.30;96.20
31735;DHT22;18313;48.518;9.124;2023-08-30T12:02:41;24.30;95.80
31735;DHT22;18313;48.518;9.124;2023-08-30T12:05:14;24.40;96.80
31735;DHT22;18313;48.518;9.124;2023-08-30T12:07:42;24.20;97.70
31735;DHT22;18313;48.518;9.124;2023-08-30T12:10:11;24.20;95.50
31735;DHT22;18313;48.518;9.124;2023-08-30T12:12:44;24.30;95.70
31735;DHT22;18313;48.518;9.124;2023-08-30T12:15:13;24.40;96.50
31735;DHT22;18313;48.518;9.124;2023-08-30T12:17:42;24.00;94.70
31735;DHT22;18313;48.518;9.124;2023-08-30T12:20:17;23.80;94.50
31735;DHT22;18313;48.518;9.124;2023-08-30T12:22:44;23.80;95.30
31735;DHT22;18313;48.518;9.124;2023-08-30T12:25:18;23.90;95.70
31735;DHT22;18313;48.518;9.124;2023-08-30T12:27:48;23.90;95.20
31735;DHT22;18313;48.518;9.124;2023-08-30T12:30:17;24.00;96.80
31735;DHT22;18313;48.518;9.124;2023-08-30T12:32:45;24.10;96.40
31735;DHT22;18313;48.518;9.124;2023-08-30T12:35:13;24.30;96.10
31735;DHT22;18313;48.518;9.124;2023-08-30T12:37:41;24.50;95.60
31735;DHT22;18313;48.518;9.124;2023-08-30T12:40:08;24.60;95.30
31735;DHT22;18313;48.518;9.124;2023-08-30T12:42:37;24.60;94.80
31735;DHT22;18313;48.518;9.124;2023-08-30T12:45:05;24.30;95.30
31735;DHT22;18313;48.518;9.124;2023-08-30T12:47:35;24.20;94.80
31735;DHT22;18313;48.518;9.124;2023-08-30T12:50:03;24.30;94.90
31735;DHT22;18313;48.518;9.124;2023-08-30T12:52:30;24.00;95.70
31735;DHT22;18313;48.518;9.124;2023-08-30T12:54:57;24.20;95.00
31735;DHT22;18313;48.518;9.124;2023-08-30T12:57:25;24.30;96.70
31735;DHT22;18313;48.518;9.124;2023-08-30T12:59:53;24.10;95.00
31735;DHT22;18313;48.518;9.124;2023-08-30T13:02:20;24.20;94.40
31735;DHT22;18313;48.518;9.124;2023-08-30T13:04:48;23.90;96.10
31735;DHT22;18313;48.518;9.124;2023-08-30T13:07:16;24.00;95.90
31735;DHT22;18313;48.518;9.124;2023-08-30T13:09:44;24.10;96.40
31735;DHT22;18313;48.518;9.124;2023-08-30T13:12:11;24.20;96.10
31735;DHT22;18313;48.518;9.124;2023-08-30T13:14:39;24.40;95.80
31735;DHT22;18313;48.518;9.124;2023-08-30T13:17:06;24.50;95.70
31735;DHT22;18313;48.518;9.124;2023-08-30T13:19:33;24.60;94.50
31735;DHT22;18313;48.518;9.124;2023-08-30T13:22:01;24.60;95.60
31735;DHT22;18313;48.518;9.124;2023-08-30T13:24:28;24.60;95.80
31735;DHT22;18313;48.518;9.124;2023-08-30T13:26:57;24.60;95.80
31735;DHT22;18313;48.518;9.124;2023-08-30T13:29:24;24.70;95.00
31735;DHT22;18313;48.518;9.124;2023-08-30T13:31:52;24.90;95.70
31735;DHT22;18313;48.518;9.124;2023-08-30T13:34:19;24.90;93.50
31735;DHT22;18313;48.518;9.124;2023-08-30T13:36:46;24.90;94.30
31735;DHT22;18313;48.518;9.124;2023-08-30T13:39:13;24.90;94.60
31735;DHT22;18313;48.518;9.124;2023-08-30T13:41:42;25.00;94.80
31735;DHT22;18313;48.518;9.124;2023-08-30T13:44:09;25.10;95.50
31735;DHT22;18313;48.518;9.124;2023-08-30T13:46:36;25.20;94.60
31735;DHT22;18313;48.518;9.124;2023-08-30T13:49:03;25.50;95.10
31735;DHT22;18313;48.518;9.124;2023-08-30T13:51:30;25.90;94.90
31735;DHT22;18313;48.518;9.124;2023-08-30T13:53:58;26.00;93.50
31735;DHT22;18313;48.518;9.124;2023-08-30T13:56:25;26.00;93.90
31735;DHT22;18313;48.518;9.124;2023-08-30T13:58:56;26.20;93.80
31735;DHT22;18313;48.518;9.124;2023-08-30T14:01:24;26.30;93.40
31735;DHT22;18313;48.518;9.124;2023-08-30T14:03:51;26.40;92.70
31735;DHT22;18313;48.518;9.124;2023-08-30T14:06:20;26.30;93.00
31735;DHT22;18313;48.518;9.124;2023-08-30T14:08:48;26.30;93.60
31735;DHT22;18313;48.518;9.124;2023-08-30T14:11:18;26.10;93.70
31735;DHT22;18313;48.518;9.124;2023-08-30T14:13:45;25.80;93.10
31735;DHT22;18313;48.518;9.124;2023-08-30T14:16:13;25.70;93.60
31735;DHT22;18313;48.518;9.124;2023-08-30T14:18:40;25.70;92.80
31735;DHT22;18313;48.518;9.124;2023-08-30T14:21:07;25.50;91.70
31735;DHT22;18313;48.518;9.124;2023-08-30T14:23:34;25.00;92.40
31735;DHT22;18313;48.518;9.124;2023-08-30T14:26:04;24.90;94.30
31735;DHT22;18313;48.518;9.124;2023-08-30T14:28:36;24.90;93.60
31735;DHT22;18313;48.518;9.124;2023-08-30T14:31:06;24.70;92.60
31735;DHT22;18313;48.518;9.124;2023-08-30T14:33:34;24.40;94.20
31735;DHT22;18313;48.518;9.124;2023-08-30T14:36:01;24.30;95.90
31735;DHT22;18313;48.518;9.124;2023-08-30T14:38:29;24.20;94.90
31735;DHT22;18313;48.518;9.124;2023-08-30T14:41:00;24.30;96.30
31735;DHT22;18313;48.518;9.124;2023-08-30T14:43:31;24.40;96.30
31735;DHT22;18313;48.518;9.124;2023-08-30T14:46:03;24.40;95.60
31735;DHT22;18313;48.518;9.124;2023-08-30T14:48:39;24.40;94.90
31735;DHT22;18313;48.518;9.124;2023-08-30T14:51:06;24.50;95.40
31735;DHT22;18313;48.518;9.124;2023-08-30T14:53:34;24.40;95.50
31735;DHT22;18313;48.518;9.124;2023-08-30T14:56:03;24.20;95.60
31735;DHT22;18313;48.518;9.124;2023-08-30T14:58:35;24.00;95.50
31735;DHT22;18313;48.518;9.124;2023-08-30T15:01:04;23.70;94.60
31735;DHT22;18313;48.518;9.124;2023-08-30T15:03:32;23.30;96.70
31735;DHT22;18313;48.518;9.124;2023-08-30T15:06:00;22.90;96.70
31735;DHT22;18313;48.518;9.124;2023-08-30T15:08:28;22.40;97.40
31735;DHT22;18313;48.518;9.124;2023-08-30T15:10:57;22.00;98.10
31735;DHT22;18313;48.518;9.124;2023-08-30T15:13:25;21.90;97.20
31735;DHT22;18313;48.518;9.124;2023-08-30T15:15:52;21.70;98.00
31735;DHT22;18313;48.518;9.124;2023-08-30T15:18:20;21.80;98.90
31735;DHT22;18313;48.518;9.124;2023-08-30T15:20:47;21.80;99.90
31735;DHT22;18313;48.518;9.124;2023-08-30T15:23:18;21.80;99.90
31735;DHT22;18313;48.518;9.124;2023-08-30T15:25:46;21.90;99.90
31735;DHT22;18313;48.518;9.124;2023-08-30T15:28:15;22.00;99.90
31735;DHT22;18313;48.518;9.124;2023-08-30T15:30:45;22.20;99.90
31735;DHT22;18313;48.518;9.124;2023-08-30T15:33:15;22.40;99.90
31735;DHT22;18313;48.518;9.124;2023-08-30T15:35:47;22.50;99.90
31735;DHT22;18313;48.518;9.124;2023-08-30T15:38:14;22.40;99.50
31735;DHT22;18313;48.518;9.124;2023-08-30T15:40:42;22.40;98.10
31735;DHT22;18313;48.518;9.124;2023-08-30T15:43:11;21.90;98.80
31735;DHT22;18313;48.518;9.124;2023-08-30T15:45:39;21.50;99.50